createdAt,value
2023-02-12T00:07:16.411Z,30.7
2023-02-12T00:13:27.833Z,19.9
2023-02-12T00:21:45.831Z,24.9
2023-02-12T00:23:49.670Z,28.2
2023-02-12T00:27:57.352Z,37.9
2023-02-12T00:38:19.008Z,25.7
2023-02-12T00:40:22.804Z,35
2023-02-12T00:42:28.097Z,37.2
2023-02-12T00:46:38.474Z,34.9
2023-02-12T00:48:42.176Z,31.4
2023-02-12T00:50:45.964Z,38.5
2023-02-12T00:51:49.260Z,37.1
2023-02-12T00:53:53.058Z,29.8
2023-02-12T00:55:57.181Z,27.6
2023-02-12T00:58:00.588Z,32.6
2023-02-12T01:00:07.217Z,34.8
2023-02-12T01:02:10.969Z,35.3
2023-02-12T01:04:14.760Z,33.5
2023-02-12T01:06:18.964Z,34.8
2023-02-12T01:08:22.614Z,31.8
2023-02-12T01:10:26.368Z,26.7
2023-02-12T01:12:30.156Z,42.3
2023-02-12T01:14:36.762Z,42.9
2023-02-12T01:16:40.733Z,34.1
2023-02-12T01:18:44.319Z,27.5
2023-02-12T01:20:48.086Z,29.3
2023-02-12T01:22:51.834Z,46.4
2023-02-12T01:24:55.620Z,40.7
2023-02-12T01:26:59.382Z,37.6
2023-02-12T01:29:05.972Z,37.4
2023-02-12T01:31:09.821Z,41.9
2023-02-12T01:33:13.498Z,40
2023-02-12T01:35:17.285Z,34.8
2023-02-12T01:41:28.557Z,40.1
2023-02-12T01:43:35.131Z,43.6
2023-02-12T01:45:38.891Z,32.5
2023-02-12T01:48:45.948Z,50.1
2023-02-12T01:50:49.714Z,46
2023-02-12T01:52:53.491Z,39.5
2023-02-12T01:54:57.347Z,39.3
2023-02-12T01:57:03.819Z,52.5
2023-02-12T01:59:07.574Z,44.2
2023-02-12T02:01:11.345Z,43.7
2023-02-12T02:09:26.402Z,41
2023-02-12T02:11:32.975Z,51.4
2023-02-12T02:13:36.771Z,49.2
2023-02-12T02:15:40.546Z,43.8
2023-02-12T02:17:44.290Z,42.9
2023-02-12T02:23:55.585Z,39.7
2023-02-12T02:28:05.954Z,32
2023-02-12T02:30:09.685Z,48.5
2023-02-12T02:32:13.464Z,40.7
2023-02-12T02:34:17.207Z,36.6
2023-02-12T02:36:20.995Z,50.7
2023-02-12T02:40:31.317Z,42.7
2023-02-12T02:42:35.065Z,44.5
2023-02-12T02:44:38.861Z,50.8
2023-02-12T02:47:45.902Z,43.2
2023-02-12T02:54:00.127Z,54.5
2023-02-12T02:58:07.723Z,49.3
2023-02-12T03:02:15.264Z,44.6
2023-02-12T03:04:18.983Z,52.2
2023-02-12T03:06:22.766Z,55.6
2023-02-12T03:08:29.305Z,52.1
2023-02-12T03:10:33.045Z,35.4
2023-02-12T03:12:36.795Z,45.4
2023-02-12T03:16:44.321Z,60.4
2023-02-12T03:18:48.006Z,46.5
2023-02-12T03:22:58.311Z,65
2023-02-12T03:27:05.820Z,50.8
2023-02-12T03:29:09.531Z,50.5
2023-02-12T03:31:13.431Z,49.6
2023-02-12T03:33:17.012Z,41.7
2023-02-12T03:35:20.747Z,40.2
2023-02-12T03:37:27.287Z,46
2023-02-12T03:39:31.004Z,42.1
2023-02-12T03:41:34.746Z,46.6
2023-02-12T03:43:58.497Z,57.5
2023-02-12T03:46:02.356Z,47.3
2023-02-12T03:48:05.922Z,53.2
2023-02-12T03:52:16.175Z,40.5
2023-02-12T03:58:27.320Z,56.1
2023-02-12T04:00:31.034Z,41.8
2023-02-12T04:04:41.354Z,55.4
2023-02-12T04:08:48.716Z,52.7
2023-02-12T04:10:52.448Z,58.6
2023-02-12T04:12:56.171Z,39.7
2023-02-12T04:14:59.882Z,34.1
2023-02-12T04:19:10.140Z,44.8
2023-02-12T04:21:13.832Z,61.6
2023-02-12T04:23:17.550Z,55.1
2023-02-12T04:25:21.264Z,56.5
2023-02-12T04:27:24.972Z,50
2023-02-12T04:29:28.691Z,50.1
2023-02-12T04:31:32.507Z,67.4
2023-02-12T04:33:38.938Z,59.7
2023-02-12T04:35:42.673Z,58.7
2023-02-12T04:37:46.407Z,63.8
2023-02-12T04:40:53.363Z,53.9
2023-02-12T04:47:07.377Z,70.1
2023-02-12T04:49:11.106Z,54.5
2023-02-12T04:51:14.914Z,71.9
2023-02-12T04:53:18.661Z,55.3
2023-02-12T04:55:22.358Z,68.9
2023-02-12T04:57:26.119Z,62.2
2023-02-12T04:59:29.854Z,79.9
2023-02-12T05:01:36.461Z,68.6
2023-02-12T05:03:40.143Z,71.3
2023-02-12T05:05:43.864Z,63.7
2023-02-12T05:07:47.580Z,59.5
2023-02-12T05:09:51.324Z,65.8
2023-02-12T05:11:55.051Z,67.3
2023-02-12T05:13:58.795Z,77.3
2023-02-12T05:16:05.412Z,59.1
2023-02-12T05:18:09.082Z,56
2023-02-12T05:20:12.833Z,62.6
2023-02-12T05:22:16.562Z,68.3
2023-02-12T05:24:20.338Z,71.6
2023-02-12T05:28:27.967Z,70.2
2023-02-12T05:32:38.204Z,71.8
2023-02-12T05:34:41.918Z,63.5
2023-02-12T05:35:45.196Z,75.1
2023-02-12T05:37:49.517Z,90.8
2023-02-12T05:41:57.015Z,76
2023-02-12T05:44:03.592Z,87.8
2023-02-12T05:46:07.356Z,65.2
2023-02-12T05:48:11.085Z,63.8
2023-02-12T05:54:22.299Z,75.2
2023-02-12T05:56:26.052Z,77.4
2023-02-12T05:58:32.615Z,76.1
2023-02-12T06:00:36.457Z,66
2023-02-12T06:02:40.368Z,87.6
2023-02-12T06:06:47.632Z,68.1
2023-02-12T06:10:55.129Z,85.6
2023-02-12T06:15:05.468Z,97.7
2023-02-12T06:17:09.268Z,74.2
2023-02-12T06:19:12.991Z,85.9
2023-02-12T06:21:16.754Z,96.1
2023-02-12T06:23:20.529Z,75.1
2023-02-12T06:25:24.265Z,87
2023-02-12T06:27:30.854Z,77.7
2023-02-12T06:31:38.631Z,95.7
2023-02-12T06:32:41.663Z,102.5
2023-02-12T06:34:45.422Z,101.7
2023-02-12T06:36:49.202Z,68.4
2023-02-12T06:41:01.003Z,106.9
2023-02-12T06:45:08.389Z,99.7
2023-02-12T06:49:16.752Z,97.8
2023-02-12T06:51:20.533Z,103.4
2023-02-12T06:59:38.429Z,108.3
2023-02-12T07:01:42.216Z,95.3
2023-02-12T07:03:46.055Z,89.2
2023-02-12T07:05:49.857Z,76.2
2023-02-12T07:10:00.245Z,98.7
2023-02-12T07:12:04.000Z,94.8
2023-02-12T07:14:07.817Z,87.3
2023-02-12T07:16:11.602Z,98.1
2023-02-12T07:20:19.113Z,91.9
2023-02-12T07:22:22.879Z,90.3
2023-02-12T07:24:29.500Z,98.7
2023-02-12T07:26:33.233Z,98.9
2023-02-12T07:28:37.085Z,87.7
2023-02-12T07:31:06.738Z,90.3
2023-02-12T07:33:10.335Z,89.2
2023-02-12T07:51:49.998Z,99.1
2023-02-12T07:53:53.779Z,84.1
2023-02-12T07:55:57.914Z,86.5
2023-02-12T07:58:01.356Z,93.6
2023-02-12T08:00:05.147Z,111.3
2023-02-12T08:02:08.946Z,100.6
2023-02-12T08:04:12.773Z,98.8
2023-02-12T08:06:19.313Z,94.9
2023-02-12T08:08:23.096Z,91.7
2023-02-12T08:10:26.886Z,92.8
2023-02-12T08:12:30.736Z,70.5
2023-02-12T08:14:34.481Z,80.7
2023-02-12T08:16:38.314Z,73.9
2023-02-12T08:18:42.066Z,72.7
2023-02-12T08:20:48.683Z,90.1
2023-02-12T08:22:52.465Z,81.8
2023-02-12T08:24:56.254Z,78.8
2023-02-12T08:30:07.159Z,66.3
2023-02-12T08:34:17.578Z,60.1
2023-02-12T08:40:28.965Z,57.1
2023-02-12T08:42:32.773Z,63.3
2023-02-12T08:44:36.568Z,56.7
2023-02-12T08:46:40.354Z,57.9
2023-02-12T08:54:58.431Z,46.5
2023-02-12T09:01:09.988Z,34
2023-02-12T09:03:16.542Z,40
2023-02-12T09:05:20.350Z,54.1
2023-02-12T09:07:24.178Z,33.1
2023-02-12T09:09:28.037Z,39.1
2023-02-12T09:11:31.813Z,44.2
2023-02-12T09:13:35.619Z,34.7
2023-02-12T09:15:39.472Z,43.1
2023-02-12T09:17:46.097Z,36.6
2023-02-12T09:22:57.112Z,40
2023-02-12T09:29:08.588Z,41.5
2023-02-12T09:33:19.078Z,32.2
2023-02-12T09:37:26.801Z,28.2
2023-02-12T09:39:30.596Z,32.4
2023-02-12T09:41:34.426Z,23.4
2023-02-12T09:43:38.274Z,30.9
2023-02-12T09:45:44.958Z,35.8
2023-02-12T09:47:48.787Z,30.8
2023-02-12T09:49:52.624Z,26.9
2023-02-12T09:51:56.490Z,22
2023-02-12T09:54:00.421Z,30.8
2023-02-12T09:56:04.179Z,29.2
2023-02-12T09:58:08.008Z,25.3
2023-02-12T10:00:14.694Z,26.2
2023-02-12T10:02:18.546Z,20.1
2023-02-12T10:04:22.438Z,27.1
2023-02-12T10:06:26.241Z,20.4
2023-02-12T10:08:30.201Z,24.7
2023-02-12T10:10:33.938Z,21
2023-02-12T10:12:37.795Z,21.7
2023-02-12T10:14:44.442Z,27.2
2023-02-12T10:16:48.298Z,33.5
2023-02-12T10:18:52.173Z,28.4
2023-02-12T10:21:59.351Z,22
2023-02-12T10:24:03.222Z,32.6
2023-02-12T10:26:07.044Z,21.3
2023-02-12T10:30:17.583Z,24.8
2023-02-12T10:32:21.436Z,18.9
2023-02-12T10:34:25.295Z,23.8
2023-02-12T10:36:29.170Z,16.9
2023-02-12T10:38:33.066Z,19.9
2023-02-12T10:40:36.900Z,18.7
2023-02-12T10:42:43.548Z,17.1
2023-02-12T10:44:47.430Z,15.9
2023-02-12T10:46:51.263Z,17
2023-02-12T10:48:55.140Z,21
2023-02-12T10:50:59.001Z,15.5
2023-02-12T10:53:02.830Z,15
2023-02-12T10:55:06.711Z,16.5
2023-02-12T10:59:17.242Z,16.3
2023-02-12T11:03:24.944Z,18.7
2023-02-12T11:05:28.804Z,15.3
2023-02-12T11:07:32.706Z,13
2023-02-12T11:11:43.195Z,19.1
2023-02-12T11:13:47.061Z,15.3
2023-02-12T11:15:50.998Z,18.1
2023-02-12T11:18:20.413Z,13.5
2023-02-12T11:20:24.284Z,18.6
2023-02-12T11:22:28.159Z,20.1
2023-02-12T11:26:38.686Z,20.2
2023-02-12T11:30:46.414Z,15.3
2023-02-12T11:32:50.266Z,14.5
2023-02-12T11:34:54.121Z,14
2023-02-12T11:36:58.002Z,18
2023-02-12T11:39:04.671Z,18.3
2023-02-12T11:41:08.539Z,16.7
2023-02-12T11:43:12.431Z,15.2
2023-02-12T11:45:16.287Z,21.2
2023-02-12T11:47:20.152Z,15.4
2023-02-12T11:49:24.003Z,18.9
2023-02-12T11:51:27.876Z,19.6
2023-02-12T11:53:34.557Z,19.2
2023-02-12T11:55:38.403Z,25.9
2023-02-12T11:57:42.283Z,18.8
2023-02-12T12:01:50.012Z,27.1
2023-02-12T12:03:53.892Z,25.9
2023-02-12T12:05:58.024Z,24.1
2023-02-12T12:10:08.306Z,24.6
2023-02-12T12:21:33.764Z,25.3
2023-02-12T12:23:37.653Z,28.7
2023-02-12T12:31:53.118Z,26.3
2023-02-12T12:33:56.966Z,19.9
2023-02-12T12:36:05.117Z,23.4
2023-02-12T12:38:08.981Z,20.9
2023-02-12T12:40:12.839Z,16.4
2023-02-12T12:42:16.709Z,23.4
2023-02-12T12:44:20.610Z,20.3
2023-02-12T12:46:24.435Z,28.5
2023-02-12T12:48:28.304Z,27.8
2023-02-12T12:50:34.986Z,26.3
2023-02-12T12:52:38.834Z,25.5
2023-02-12T12:54:42.784Z,30.7
2023-02-12T12:56:46.546Z,29.2
2023-02-12T12:58:50.428Z,23.3
2023-02-12T13:00:54.363Z,27.3
2023-02-12T13:02:58.138Z,26.8
2023-02-12T13:05:04.811Z,28.7
2023-02-12T13:09:12.542Z,24.1
2023-02-12T13:14:23.585Z,28
2023-02-12T13:16:27.504Z,26.1
2023-02-12T13:18:34.151Z,24.2
2023-02-12T13:28:53.480Z,20.8
2023-02-12T13:30:57.447Z,31.1
2023-02-12T13:33:04.024Z,26.1
2023-02-12T13:35:07.889Z,20.9
2023-02-12T13:37:11.754Z,22.1
2023-02-12T13:39:15.604Z,32.2
2023-02-12T13:41:19.482Z,23.2
2023-02-12T13:43:23.325Z,14.6
2023-02-12T13:45:27.185Z,18.3
2023-02-12T13:51:41.592Z,21.5
2023-02-12T13:53:45.432Z,22.6
2023-02-12T13:57:53.170Z,30.7
2023-02-12T13:59:57.006Z,21.1
2023-02-12T14:04:07.562Z,22
2023-02-12T14:06:11.421Z,23.6
2023-02-12T14:07:14.750Z,19.7
2023-02-12T14:09:18.615Z,16.6
2023-02-12T14:11:22.497Z,17.4
2023-02-12T14:13:26.347Z,20.5
2023-02-12T14:15:33.057Z,21.7
2023-02-12T14:17:36.880Z,22.1
2023-02-12T14:19:40.753Z,23
2023-02-12T14:21:44.604Z,29.9
2023-02-12T14:23:48.456Z,23.6
2023-02-12T14:25:52.313Z,16.9
2023-02-12T14:27:56.185Z,25.5
2023-02-12T14:30:02.951Z,21.4
2023-02-12T14:32:06.739Z,20.8
2023-02-12T14:34:10.583Z,30.3
2023-02-12T14:40:22.164Z,29.3
2023-02-12T14:42:26.034Z,20.4
2023-02-12T14:46:36.714Z,26.8
2023-02-12T14:50:44.270Z,23.4
2023-02-12T14:59:02.557Z,23.4
2023-02-12T15:05:39.860Z,21.7
2023-02-12T15:07:43.753Z,29.7
2023-02-12T15:11:54.274Z,19
2023-02-12T15:13:58.106Z,21
2023-02-12T15:16:02.339Z,23.6
2023-02-12T15:18:05.837Z,20.1
2023-02-12T15:20:09.649Z,25.8
2023-02-12T15:22:13.498Z,18.7
2023-02-12T15:24:17.361Z,23.5
2023-02-12T15:26:24.034Z,22.2
2023-02-12T15:28:27.955Z,23.8
2023-02-12T15:45:01.620Z,15.7
2023-02-12T15:47:05.347Z,32.7
2023-02-12T15:51:13.034Z,33.9
2023-02-12T15:53:16.888Z,23
2023-02-12T15:55:23.565Z,31
2023-02-12T15:57:27.407Z,21
2023-02-12T15:59:31.231Z,22.2
2023-02-12T16:00:34.597Z,30.5
2023-02-12T16:04:42.249Z,28.8
2023-02-12T16:15:04.295Z,24.4
2023-02-12T16:19:12.002Z,21.7
2023-02-12T16:21:15.814Z,22.6
2023-02-12T16:23:22.490Z,28.2
2023-02-12T16:25:26.330Z,23.1
2023-02-12T16:29:34.008Z,29.7
2023-02-12T16:33:41.704Z,27.9
2023-02-12T16:35:45.585Z,25.9
2023-02-12T16:37:52.237Z,28.5
2023-02-12T16:44:03.833Z,23.2
2023-02-12T16:48:11.486Z,24.4
2023-02-12T16:50:15.326Z,21.6
2023-02-12T16:54:25.816Z,21.3
2023-02-12T17:01:40.648Z,25.5
2023-02-12T17:03:44.508Z,21.4
2023-02-12T17:05:51.182Z,29.4
2023-02-12T17:12:02.707Z,26.4
2023-02-12T17:14:06.532Z,27.5
2023-02-12T17:16:12.740Z,20
2023-02-12T17:18:14.226Z,28
2023-02-12T17:20:20.889Z,28.1
2023-02-12T17:22:24.777Z,21.7
2023-02-12T17:24:28.557Z,27.8
2023-02-12T17:26:32.422Z,33.3
2023-02-12T17:28:36.320Z,25.9
2023-02-12T17:30:40.127Z,27
2023-02-12T17:32:43.979Z,33.2
2023-02-12T17:34:50.650Z,24.7
2023-02-12T17:36:54.477Z,31.1
2023-02-12T17:38:58.314Z,32
2023-02-12T17:41:02.167Z,25.3
2023-02-12T17:43:06.023Z,23.1
2023-02-12T17:45:09.871Z,32.3
2023-02-12T17:47:13.726Z,27.8
2023-02-12T17:49:20.381Z,28.6
2023-02-12T17:51:24.223Z,30.8
2023-02-12T17:53:28.063Z,26.8
2023-02-12T17:54:31.395Z,25.9
2023-02-12T17:56:35.252Z,23.8
2023-02-12T18:00:42.960Z,32.2
2023-02-12T18:04:53.456Z,32
2023-02-12T18:09:01.160Z,28.9
2023-02-12T18:13:08.863Z,29.4
2023-02-12T18:15:12.704Z,28
2023-02-12T18:19:23.206Z,31.3
2023-02-12T18:21:27.027Z,34.7
2023-02-12T18:23:30.874Z,26.2
2023-02-12T18:25:34.721Z,34.9
2023-02-12T18:29:42.441Z,34.9
2023-02-12T18:31:50.611Z,38.1
2023-02-12T18:33:54.380Z,26.5
2023-02-12T18:35:58.237Z,49.1
2023-02-12T18:38:02.065Z,37.2
2023-02-12T18:44:13.599Z,30.2
2023-02-12T18:55:01.381Z,43.8
2023-02-12T18:57:05.195Z,40.1
2023-02-12T19:05:23.396Z,44.7
2023-02-12T19:07:27.268Z,43.4
2023-02-12T19:09:31.077Z,42.4
2023-02-12T19:13:41.559Z,44.2
2023-02-12T19:15:45.417Z,33
2023-02-12T19:19:53.086Z,24.9
2023-02-12T19:21:56.922Z,28.1
2023-02-12T19:24:00.754Z,35.4
2023-02-12T19:26:04.577Z,56.5
2023-02-12T19:28:11.262Z,51.4
2023-02-12T19:30:15.272Z,52.3
2023-02-12T19:32:18.951Z,50
2023-02-12T19:34:22.713Z,51.6
2023-02-12T19:36:26.581Z,54
2023-02-12T19:38:30.404Z,64.6
2023-02-12T19:40:36.851Z,58
2023-02-12T19:42:40.854Z,49.8
2023-02-12T19:44:44.703Z,58.4
2023-02-12T19:46:48.546Z,56.5
2023-02-12T19:47:51.873Z,50.7
2023-02-12T19:49:55.709Z,53
2023-02-12T19:51:59.518Z,40.7
2023-02-12T19:54:03.363Z,32.6
2023-02-12T19:56:10.029Z,43.3
2023-02-12T20:02:21.538Z,47.2
2023-02-12T20:04:25.428Z,37.8
2023-02-12T20:08:33.075Z,42.7
2023-02-12T20:16:51.191Z,45.3
2023-02-12T20:18:55.044Z,50.2
2023-02-12T20:23:02.763Z,60.7
2023-02-12T20:31:21.025Z,47.8
2023-02-12T20:33:24.692Z,35.8
2023-02-12T20:35:28.525Z,28.8
2023-02-12T20:37:32.383Z,41.5
2023-02-12T20:41:42.857Z,54.3
2023-02-12T20:43:46.685Z,42.9
2023-02-12T20:46:56.541Z,55.7
2023-02-12T20:51:01.519Z,40.1
2023-02-12T20:53:08.131Z,43.4
2023-02-12T20:55:11.987Z,59.6
2023-02-12T20:57:15.803Z,39.9
2023-02-12T20:59:19.643Z,41
2023-02-12T21:01:23.546Z,37
2023-02-12T21:03:27.290Z,47.4
2023-02-12T21:05:31.120Z,30.2
2023-02-12T21:07:37.787Z,37.9
2023-02-12T21:09:41.588Z,45.9
2023-02-12T21:11:45.425Z,48.1
2023-02-12T21:13:58.872Z,46.4
2023-02-12T21:15:53.132Z,70.6
2023-02-12T21:17:56.905Z,46.5
2023-02-12T21:20:00.715Z,50.9
2023-02-12T21:22:07.359Z,49.6
2023-02-12T21:24:11.177Z,48.6
2023-02-12T21:26:15.027Z,40.9
2023-02-12T21:28:18.883Z,43.9
2023-02-12T21:30:22.673Z,51.2
2023-02-12T21:32:26.556Z,60
2023-02-12T21:34:30.347Z,35.1
2023-02-12T21:36:36.989Z,48.3
2023-02-12T21:38:40.809Z,35.9
2023-02-12T21:40:44.631Z,49.8
2023-02-12T21:43:51.767Z,37.3
2023-02-12T21:45:55.645Z,39.5
2023-02-12T21:54:14.659Z,41.5
2023-02-12T21:56:17.545Z,40
2023-02-12T21:58:21.363Z,37.3
2023-02-12T22:00:25.192Z,34.8
2023-02-12T22:02:29.062Z,38.3
2023-02-12T22:04:35.647Z,39.2
2023-02-12T22:06:39.473Z,48.2
2023-02-12T22:08:43.294Z,36.6
2023-02-12T22:10:47.115Z,29
2023-02-12T22:12:50.928Z,62.5
2023-02-12T22:16:58.571Z,41.2
2023-02-12T22:19:05.245Z,33.7
2023-02-12T22:21:11.955Z,41.8
2023-02-12T22:23:12.888Z,38.9
2023-02-12T22:25:16.696Z,44.6
2023-02-12T22:27:20.531Z,34
2023-02-12T22:29:24.368Z,30
2023-02-12T22:31:28.240Z,38.7
2023-02-12T22:33:34.809Z,35
2023-02-12T22:40:12.041Z,35
2023-02-12T22:42:15.871Z,35.3
2023-02-12T22:44:21.332Z,31.7
2023-02-12T22:46:26.325Z,30.8
2023-02-12T22:50:33.967Z,35.2
2023-02-12T22:52:37.786Z,29.1
2023-02-12T22:54:41.593Z,31.8
2023-02-12T22:57:38.502Z,45.9
2023-02-12T22:58:49.249Z,33.2
2023-02-12T23:00:56.369Z,42.5
2023-02-12T23:02:59.710Z,35.2
2023-02-12T23:05:03.510Z,29
2023-02-12T23:07:07.355Z,35.1
2023-02-12T23:09:11.195Z,32.1
2023-02-12T23:11:15.009Z,38.3
2023-02-12T23:13:29.419Z,29.7
2023-02-12T23:15:25.450Z,34.2
2023-02-12T23:17:29.353Z,35.9
2023-02-12T23:19:33.116Z,34.4
2023-02-12T23:21:36.919Z,34.5
2023-02-12T23:23:40.739Z,29.1
2023-02-12T23:31:58.941Z,28.4
2023-02-12T23:34:02.658Z,36.7
2023-02-12T23:35:05.959Z,28.9
2023-02-12T23:37:09.792Z,32.4
2023-02-12T23:39:13.622Z,26.1
2023-02-12T23:45:27.871Z,31.7
2023-02-12T23:53:43.323Z,35.2
2023-02-12T23:57:53.775Z,37.6
2023-02-12T23:59:57.582Z,36.9
